Pagrindinis puslapis
METAR-TAF:

METAR-TAF

Oro uostai :

Seldovia, Aliaska, Jungtinės Amerikos Valstijos

platuma: 59-27N, ilguma: 151-42W, Aukštis: 9 m

Dabartinis oras

Ataskaita buvo paskelbta 1 valandą ir 8 minutes, ne 03:53 UTC
Vėjas 4 kt nuo kintamojo kryptimis
Temperatūra -2°C
Drėgmė 63%
Slėgis 1017 hPa
Matomumas: 16.1 km
Apsiniaukę ne aukštis 2500 ft

METAR: PASO 290353Z AUTO VRB04KT 10SM OVC025 M02/M08 A3003 RMK AO2 SLP168 T10221078 TSNO

Laikas: 20:01 (05:01 UTC)


TAF: trūkstamas

Orai ataskaitas ir orų prognozės (METAR, TAF).

turimą stotys yra geltonos ir raudonos taškus žemėlapyje.

Perkelti pele per norėdami pamatyti stoties vardą.

Tada spustelėkite, norėdami matyti oro stebėjimo ir prognozės.

Norėdami pakeisti žemėlapį: spustelėkite ant žalios mygtukų su juodo kryžiaus žemyn,; žalią mygtuką su brūkšneliu, jei norite nutolinti; arba žalių rodyklių gretimoms žemėlapius.


METAR-TAF: